sensor_id;sensor_type;location;lat;lon;timestamp;temperature;humidity
29501;DHT22;16450;50.288;10.966;2022-10-22T00:00:44;13.30;99.90
29501;DHT22;16450;50.288;10.966;2022-10-22T00:03:44;13.30;99.90
29501;DHT22;16450;50.288;10.966;2022-10-22T00:06:45;13.30;99.90
29501;DHT22;16450;50.288;10.966;2022-10-22T00:09:46;13.30;99.90
29501;DHT22;16450;50.288;10.966;2022-10-22T00:12:46;13.30;99.90
29501;DHT22;16450;50.288;10.966;2022-10-22T00:15:47;13.30;99.90
29501;DHT22;16450;50.288;10.966;2022-10-22T00:18:48;13.30;99.90
29501;DHT22;16450;50.288;10.966;2022-10-22T00:21:48;13.30;99.90
29501;DHT22;16450;50.288;10.966;2022-10-22T00:24:49;13.30;99.90
29501;DHT22;16450;50.288;10.966;2022-10-22T00:27:49;13.30;99.90
29501;DHT22;16450;50.288;10.966;2022-10-22T00:30:59;13.30;99.90
29501;DHT22;16450;50.288;10.966;2022-10-22T00:34:00;13.30;99.90
29501;DHT22;16450;50.288;10.966;2022-10-22T00:37:01;13.30;99.90
29501;DHT22;16450;50.288;10.966;2022-10-22T00:40:02;13.30;99.90
29501;DHT22;16450;50.288;10.966;2022-10-22T00:43:03;13.30;99.90
29501;DHT22;16450;50.288;10.966;2022-10-22T00:46:04;13.30;99.90
29501;DHT22;16450;50.288;10.966;2022-10-22T00:49:04;13.30;99.90
29501;DHT22;16450;50.288;10.966;2022-10-22T00:52:05;13.40;99.90
29501;DHT22;16450;50.288;10.966;2022-10-22T00:55:06;13.30;99.90
29501;DHT22;16450;50.288;10.966;2022-10-22T00:58:07;13.30;99.90
29501;DHT22;16450;50.288;10.966;2022-10-22T01:01:23;13.30;99.90
29501;DHT22;16450;50.288;10.966;2022-10-22T01:04:24;13.30;99.90
29501;DHT22;16450;50.288;10.966;2022-10-22T01:07:25;13.30;99.90
29501;DHT22;16450;50.288;10.966;2022-10-22T01:14:11;13.30;99.90
29501;DHT22;16450;50.288;10.966;2022-10-22T01:27:28;13.30;99.90
29501;DHT22;16450;50.288;10.966;2022-10-22T01:30:35;13.30;99.90
29501;DHT22;16450;50.288;10.966;2022-10-22T01:33:38;13.40;99.90
29501;DHT22;16450;50.288;10.966;2022-10-22T01:36:40;13.40;99.90
29501;DHT22;16450;50.288;10.966;2022-10-22T01:39:42;13.30;99.90
29501;DHT22;16450;50.288;10.966;2022-10-22T01:45:59;13.30;99.90
29501;DHT22;16450;50.288;10.966;2022-10-22T01:49:26;13.30;99.90
29501;DHT22;16450;50.288;10.966;2022-10-22T01:59:16;13.40;99.90
29501;DHT22;16450;50.288;10.966;2022-10-22T02:05:48;13.40;99.90
29501;DHT22;16450;50.288;10.966;2022-10-22T02:08:51;13.30;99.90
29501;DHT22;16450;50.288;10.966;2022-10-22T02:11:53;13.30;99.90
29501;DHT22;16450;50.288;10.966;2022-10-22T02:14:55;13.40;99.90
29501;DHT22;16450;50.288;10.966;2022-10-22T02:17:57;13.40;99.90
29501;DHT22;16450;50.288;10.966;2022-10-22T02:20:59;13.30;99.90
29501;DHT22;16450;50.288;10.966;2022-10-22T02:24:01;13.30;99.90
29501;DHT22;16450;50.288;10.966;2022-10-22T02:30:20;13.30;99.90
29501;DHT22;16450;50.288;10.966;2022-10-22T02:33:29;13.30;99.90
29501;DHT22;16450;50.288;10.966;2022-10-22T02:36:30;13.30;99.90
29501;DHT22;16450;50.288;10.966;2022-10-22T02:39:32;13.30;99.90
29501;DHT22;16450;50.288;10.966;2022-10-22T02:42:34;13.30;99.90
29501;DHT22;16450;50.288;10.966;2022-10-22T02:45:36;13.30;99.90
29501;DHT22;16450;50.288;10.966;2022-10-22T02:48:37;13.20;99.90
29501;DHT22;16450;50.288;10.966;2022-10-22T02:51:37;13.30;99.90
29501;DHT22;16450;50.288;10.966;2022-10-22T02:54:38;13.30;99.90
29501;DHT22;16450;50.288;10.966;2022-10-22T02:57:39;13.20;99.90
29501;DHT22;16450;50.288;10.966;2022-10-22T03:00:39;13.20;99.90
29501;DHT22;16450;50.288;10.966;2022-10-22T03:03:40;13.20;99.90
29501;DHT22;16450;50.288;10.966;2022-10-22T03:06:41;13.20;99.90
29501;DHT22;16450;50.288;10.966;2022-10-22T03:09:44;13.20;99.90
29501;DHT22;16450;50.288;10.966;2022-10-22T03:12:45;13.30;99.90
29501;DHT22;16450;50.288;10.966;2022-10-22T03:15:48;13.30;99.90
29501;DHT22;16450;50.288;10.966;2022-10-22T03:18:49;13.30;99.90
29501;DHT22;16450;50.288;10.966;2022-10-22T03:21:54;13.20;99.90
29501;DHT22;16450;50.288;10.966;2022-10-22T03:25:02;13.30;99.90
29501;DHT22;16450;50.288;10.966;2022-10-22T03:28:06;13.30;99.90
29501;DHT22;16450;50.288;10.966;2022-10-22T03:31:07;13.30;99.90
29501;DHT22;16450;50.288;10.966;2022-10-22T03:34:08;13.20;99.90
29501;DHT22;16450;50.288;10.966;2022-10-22T03:37:11;13.30;99.90
29501;DHT22;16450;50.288;10.966;2022-10-22T03:40:12;13.20;99.90
29501;DHT22;16450;50.288;10.966;2022-10-22T03:43:13;13.20;99.90
29501;DHT22;16450;50.288;10.966;2022-10-22T03:46:14;13.20;99.90
29501;DHT22;16450;50.288;10.966;2022-10-22T03:49:15;13.20;99.90
29501;DHT22;16450;50.288;10.966;2022-10-22T03:52:16;13.20;99.90
29501;DHT22;16450;50.288;10.966;2022-10-22T03:55:16;13.20;99.90
29501;DHT22;16450;50.288;10.966;2022-10-22T03:58:17;13.20;99.90
29501;DHT22;16450;50.288;10.966;2022-10-22T04:01:17;13.10;99.90
29501;DHT22;16450;50.288;10.966;2022-10-22T04:04:18;13.20;99.90
29501;DHT22;16450;50.288;10.966;2022-10-22T04:07:19;13.20;99.90
29501;DHT22;16450;50.288;10.966;2022-10-22T04:10:19;13.10;99.90
29501;DHT22;16450;50.288;10.966;2022-10-22T04:13:20;13.20;99.90
29501;DHT22;16450;50.288;10.966;2022-10-22T04:16:22;13.10;99.90
29501;DHT22;16450;50.288;10.966;2022-10-22T04:19:22;13.20;99.90
29501;DHT22;16450;50.288;10.966;2022-10-22T04:22:23;13.20;99.90
29501;DHT22;16450;50.288;10.966;2022-10-22T04:25:23;13.20;99.90
29501;DHT22;16450;50.288;10.966;2022-10-22T04:28:24;13.20;99.90
29501;DHT22;16450;50.288;10.966;2022-10-22T04:31:25;13.20;99.90
29501;DHT22;16450;50.288;10.966;2022-10-22T04:34:27;13.20;99.90
29501;DHT22;16450;50.288;10.966;2022-10-22T04:37:27;13.20;99.90
29501;DHT22;16450;50.288;10.966;2022-10-22T04:40:28;13.20;99.90
29501;DHT22;16450;50.288;10.966;2022-10-22T04:43:29;13.20;99.90
29501;DHT22;16450;50.288;10.966;2022-10-22T04:46:31;13.20;99.90
29501;DHT22;16450;50.288;10.966;2022-10-22T04:49:32;13.20;99.90
29501;DHT22;16450;50.288;10.966;2022-10-22T04:52:33;13.20;99.90
29501;DHT22;16450;50.288;10.966;2022-10-22T04:55:34;13.20;99.90
29501;DHT22;16450;50.288;10.966;2022-10-22T04:58:34;13.20;99.90
29501;DHT22;16450;50.288;10.966;2022-10-22T05:01:38;13.10;99.90
29501;DHT22;16450;50.288;10.966;2022-10-22T05:04:38;13.20;99.90
29501;DHT22;16450;50.288;10.966;2022-10-22T05:07:39;13.20;99.90
29501;DHT22;16450;50.288;10.966;2022-10-22T05:10:39;13.10;99.90
29501;DHT22;16450;50.288;10.966;2022-10-22T05:13:40;13.20;99.90
29501;DHT22;16450;50.288;10.966;2022-10-22T05:16:41;13.10;99.90
29501;DHT22;16450;50.288;10.966;2022-10-22T05:19:41;13.20;99.90
29501;DHT22;16450;50.288;10.966;2022-10-22T05:22:42;13.10;99.90
29501;DHT22;16450;50.288;10.966;2022-10-22T05:25:42;13.20;99.90
29501;DHT22;16450;50.288;10.966;2022-10-22T05:28:43;13.10;99.90
29501;DHT22;16450;50.288;10.966;2022-10-22T05:31:44;13.10;99.90
29501;DHT22;16450;50.288;10.966;2022-10-22T05:34:45;13.10;99.90
29501;DHT22;16450;50.288;10.966;2022-10-22T05:37:45;13.10;99.90
29501;DHT22;16450;50.288;10.966;2022-10-22T05:40:46;13.10;99.90
29501;DHT22;16450;50.288;10.966;2022-10-22T05:43:47;13.10;99.90
29501;DHT22;16450;50.288;10.966;2022-10-22T05:46:48;13.10;99.90
29501;DHT22;16450;50.288;10.966;2022-10-22T05:49:48;13.10;99.90
29501;DHT22;16450;50.288;10.966;2022-10-22T05:52:49;13.10;99.90
29501;DHT22;16450;50.288;10.966;2022-10-22T05:55:49;13.10;99.90
29501;DHT22;16450;50.288;10.966;2022-10-22T05:58:50;13.10;99.90
29501;DHT22;16450;50.288;10.966;2022-10-22T06:01:51;13.00;99.90
29501;DHT22;16450;50.288;10.966;2022-10-22T06:04:52;13.00;99.90
29501;DHT22;16450;50.288;10.966;2022-10-22T06:07:52;13.00;99.90
29501;DHT22;16450;50.288;10.966;2022-10-22T06:10:53;13.00;99.90
29501;DHT22;16450;50.288;10.966;2022-10-22T06:13:54;13.00;99.90
29501;DHT22;16450;50.288;10.966;2022-10-22T06:16:55;12.90;99.90
29501;DHT22;16450;50.288;10.966;2022-10-22T06:19:58;13.00;99.90
29501;DHT22;16450;50.288;10.966;2022-10-22T06:22:59;13.00;99.90
29501;DHT22;16450;50.288;10.966;2022-10-22T06:26:00;13.00;99.90
29501;DHT22;16450;50.288;10.966;2022-10-22T06:29:01;13.00;99.90
29501;DHT22;16450;50.288;10.966;2022-10-22T06:32:02;12.90;99.90
29501;DHT22;16450;50.288;10.966;2022-10-22T06:35:03;12.90;99.90
29501;DHT22;16450;50.288;10.966;2022-10-22T06:38:04;12.90;99.90
29501;DHT22;16450;50.288;10.966;2022-10-22T06:41:08;12.90;99.90
29501;DHT22;16450;50.288;10.966;2022-10-22T06:44:13;12.90;99.90
29501;DHT22;16450;50.288;10.966;2022-10-22T06:47:15;12.90;99.90
29501;DHT22;16450;50.288;10.966;2022-10-22T06:50:15;12.90;99.90
29501;DHT22;16450;50.288;10.966;2022-10-22T06:53:16;12.90;99.90
29501;DHT22;16450;50.288;10.966;2022-10-22T06:56:19;12.90;99.90
29501;DHT22;16450;50.288;10.966;2022-10-22T06:59:20;12.90;99.90
29501;DHT22;16450;50.288;10.966;2022-10-22T07:02:20;12.90;99.90
29501;DHT22;16450;50.288;10.966;2022-10-22T07:05:21;12.90;99.90
29501;DHT22;16450;50.288;10.966;2022-10-22T07:08:21;12.90;99.90
29501;DHT22;16450;50.288;10.966;2022-10-22T07:11:48;12.90;99.90
29501;DHT22;16450;50.288;10.966;2022-10-22T07:14:49;12.90;99.90
29501;DHT22;16450;50.288;10.966;2022-10-22T07:17:50;12.90;99.90
29501;DHT22;16450;50.288;10.966;2022-10-22T07:20:53;13.00;99.90
29501;DHT22;16450;50.288;10.966;2022-10-22T07:23:54;13.00;99.90
29501;DHT22;16450;50.288;10.966;2022-10-22T07:26:55;12.90;99.90
29501;DHT22;16450;50.288;10.966;2022-10-22T07:29:56;13.10;99.90
29501;DHT22;16450;50.288;10.966;2022-10-22T07:33:00;13.10;99.90
29501;DHT22;16450;50.288;10.966;2022-10-22T07:36:04;13.10;99.90
29501;DHT22;16450;50.288;10.966;2022-10-22T07:39:05;13.10;99.90
29501;DHT22;16450;50.288;10.966;2022-10-22T07:42:05;13.20;99.90
29501;DHT22;16450;50.288;10.966;2022-10-22T07:45:07;13.20;99.90
29501;DHT22;16450;50.288;10.966;2022-10-22T07:48:07;13.20;99.90
29501;DHT22;16450;50.288;10.966;2022-10-22T07:51:08;13.20;99.90
29501;DHT22;16450;50.288;10.966;2022-10-22T07:54:09;13.20;99.90
29501;DHT22;16450;50.288;10.966;2022-10-22T07:57:10;13.30;99.90
29501;DHT22;16450;50.288;10.966;2022-10-22T08:00:11;13.30;99.90
29501;DHT22;16450;50.288;10.966;2022-10-22T08:03:12;13.30;99.90
29501;DHT22;16450;50.288;10.966;2022-10-22T08:06:14;13.30;99.90
29501;DHT22;16450;50.288;10.966;2022-10-22T08:09:14;13.40;99.90
29501;DHT22;16450;50.288;10.966;2022-10-22T08:12:15;13.40;99.90
29501;DHT22;16450;50.288;10.966;2022-10-22T08:15:16;13.40;99.90
29501;DHT22;16450;50.288;10.966;2022-10-22T08:18:17;13.50;99.90
29501;DHT22;16450;50.288;10.966;2022-10-22T08:21:17;13.50;99.90
29501;DHT22;16450;50.288;10.966;2022-10-22T08:24:18;13.60;99.90
29501;DHT22;16450;50.288;10.966;2022-10-22T08:27:19;13.70;99.90
29501;DHT22;16450;50.288;10.966;2022-10-22T08:30:19;13.70;99.90
29501;DHT22;16450;50.288;10.966;2022-10-22T08:33:20;13.80;99.90
29501;DHT22;16450;50.288;10.966;2022-10-22T08:36:21;13.90;99.90
29501;DHT22;16450;50.288;10.966;2022-10-22T08:39:22;13.80;99.90
29501;DHT22;16450;50.288;10.966;2022-10-22T08:45:46;13.90;99.90
29501;DHT22;16450;50.288;10.966;2022-10-22T08:48:52;13.90;99.90
29501;DHT22;16450;50.288;10.966;2022-10-22T08:51:55;13.90;99.90
29501;DHT22;16450;50.288;10.966;2022-10-22T08:54:58;13.90;99.90
29501;DHT22;16450;50.288;10.966;2022-10-22T08:58:29;13.90;99.90
29501;DHT22;16450;50.288;10.966;2022-10-22T09:01:47;13.90;99.90
29501;DHT22;16450;50.288;10.966;2022-10-22T09:05:00;13.90;99.90
29501;DHT22;16450;50.288;10.966;2022-10-22T09:08:02;13.90;99.90
29501;DHT22;16450;50.288;10.966;2022-10-22T09:11:19;14.00;99.90
29501;DHT22;16450;50.288;10.966;2022-10-22T09:14:23;14.00;99.90
29501;DHT22;16450;50.288;10.966;2022-10-22T09:17:37;14.00;99.90
29501;DHT22;16450;50.288;10.966;2022-10-22T09:20:48;14.00;99.90
29501;DHT22;16450;50.288;10.966;2022-10-22T09:24:11;14.00;99.90
29501;DHT22;16450;50.288;10.966;2022-10-22T09:27:15;14.00;99.90
29501;DHT22;16450;50.288;10.966;2022-10-22T09:30:22;14.00;99.90
29501;DHT22;16450;50.288;10.966;2022-10-22T09:33:27;14.00;99.90
29501;DHT22;16450;50.288;10.966;2022-10-22T09:36:30;14.10;99.90
29501;DHT22;16450;50.288;10.966;2022-10-22T09:39:37;14.10;99.90
29501;DHT22;16450;50.288;10.966;2022-10-22T09:42:37;14.20;99.90
29501;DHT22;16450;50.288;10.966;2022-10-22T09:45:39;14.10;99.90
29501;DHT22;16450;50.288;10.966;2022-10-22T09:48:41;14.20;99.90
29501;DHT22;16450;50.288;10.966;2022-10-22T09:54:54;14.30;99.90
29501;DHT22;16450;50.288;10.966;2022-10-22T09:57:58;14.40;99.90
29501;DHT22;16450;50.288;10.966;2022-10-22T10:01:00;14.50;99.90
29501;DHT22;16450;50.288;10.966;2022-10-22T10:04:06;14.50;99.90
29501;DHT22;16450;50.288;10.966;2022-10-22T10:07:18;14.60;99.90
29501;DHT22;16450;50.288;10.966;2022-10-22T10:14:20;14.60;99.90
29501;DHT22;16450;50.288;10.966;2022-10-22T10:27:22;14.70;99.90
29501;DHT22;16450;50.288;10.966;2022-10-22T10:30:25;14.70;99.90
29501;DHT22;16450;50.288;10.966;2022-10-22T10:40:13;14.70;99.90
29501;DHT22;16450;50.288;10.966;2022-10-22T10:46:31;14.80;99.90
29501;DHT22;16450;50.288;10.966;2022-10-22T10:49:34;14.80;99.90
29501;DHT22;16450;50.288;10.966;2022-10-22T10:52:54;14.70;99.90
29501;DHT22;16450;50.288;10.966;2022-10-22T10:55:58;14.70;99.90
29501;DHT22;16450;50.288;10.966;2022-10-22T10:59:02;14.70;99.90
29501;DHT22;16450;50.288;10.966;2022-10-22T11:02:37;14.60;99.90
29501;DHT22;16450;50.288;10.966;2022-10-22T11:06:06;14.60;99.90
29501;DHT22;16450;50.288;10.966;2022-10-22T11:09:23;14.60;99.90
29501;DHT22;16450;50.288;10.966;2022-10-22T11:12:29;14.60;99.90
29501;DHT22;16450;50.288;10.966;2022-10-22T11:15:35;14.60;99.90
29501;DHT22;16450;50.288;10.966;2022-10-22T11:18:46;14.50;99.90
29501;DHT22;16450;50.288;10.966;2022-10-22T11:21:57;14.50;99.90
29501;DHT22;16450;50.288;10.966;2022-10-22T11:25:20;14.50;99.90
29501;DHT22;16450;50.288;10.966;2022-10-22T11:28:34;14.50;99.90
29501;DHT22;16450;50.288;10.966;2022-10-22T11:31:37;14.50;99.90
29501;DHT22;16450;50.288;10.966;2022-10-22T11:34:48;14.40;99.90
29501;DHT22;16450;50.288;10.966;2022-10-22T11:37:51;14.40;99.90
29501;DHT22;16450;50.288;10.966;2022-10-22T11:40:58;14.40;99.90
29501;DHT22;16450;50.288;10.966;2022-10-22T11:44:10;14.50;99.90
29501;DHT22;16450;50.288;10.966;2022-10-22T11:47:24;14.50;99.90
29501;DHT22;16450;50.288;10.966;2022-10-22T11:53:56;14.60;99.90
29501;DHT22;16450;50.288;10.966;2022-10-22T11:57:20;14.70;99.90
29501;DHT22;16450;50.288;10.966;2022-10-22T12:00:40;14.80;99.90
29501;DHT22;16450;50.288;10.966;2022-10-22T12:04:14;14.90;99.90
29501;DHT22;16450;50.288;10.966;2022-10-22T12:07:34;15.10;99.90
29501;DHT22;16450;50.288;10.966;2022-10-22T12:11:11;15.20;99.90
29501;DHT22;16450;50.288;10.966;2022-10-22T12:17:27;15.70;99.90
29501;DHT22;16450;50.288;10.966;2022-10-22T12:20:28;15.80;99.90
29501;DHT22;16450;50.288;10.966;2022-10-22T12:23:32;16.00;99.90
29501;DHT22;16450;50.288;10.966;2022-10-22T12:26:33;16.10;99.90
29501;DHT22;16450;50.288;10.966;2022-10-22T12:29:34;16.10;99.90
29501;DHT22;16450;50.288;10.966;2022-10-22T12:32:37;16.10;99.90
29501;DHT22;16450;50.288;10.966;2022-10-22T12:35:43;16.00;99.90
29501;DHT22;16450;50.288;10.966;2022-10-22T12:38:45;16.10;99.90
29501;DHT22;16450;50.288;10.966;2022-10-22T12:41:46;16.10;99.90
29501;DHT22;16450;50.288;10.966;2022-10-22T12:44:47;16.00;99.90
29501;DHT22;16450;50.288;10.966;2022-10-22T12:47:51;16.00;99.90
29501;DHT22;16450;50.288;10.966;2022-10-22T12:50:57;15.90;99.90
29501;DHT22;16450;50.288;10.966;2022-10-22T12:54:23;15.80;99.90
29501;DHT22;16450;50.288;10.966;2022-10-22T12:57:25;15.70;99.90
29501;DHT22;16450;50.288;10.966;2022-10-22T13:00:29;15.70;99.90
29501;DHT22;16450;50.288;10.966;2022-10-22T13:03:35;15.70;99.90
29501;DHT22;16450;50.288;10.966;2022-10-22T13:06:43;15.70;99.90
29501;DHT22;16450;50.288;10.966;2022-10-22T13:09:58;15.80;99.90
29501;DHT22;16450;50.288;10.966;2022-10-22T13:12:59;16.00;99.90
29501;DHT22;16450;50.288;10.966;2022-10-22T13:16:21;16.00;99.90
29501;DHT22;16450;50.288;10.966;2022-10-22T13:20:00;16.10;99.90
29501;DHT22;16450;50.288;10.966;2022-10-22T13:23:18;16.20;99.90
29501;DHT22;16450;50.288;10.966;2022-10-22T13:26:19;16.30;99.90
29501;DHT22;16450;50.288;10.966;2022-10-22T13:29:21;16.30;99.90
29501;DHT22;16450;50.288;10.966;2022-10-22T13:32:33;16.40;99.90
29501;DHT22;16450;50.288;10.966;2022-10-22T13:35:35;16.40;99.90
29501;DHT22;16450;50.288;10.966;2022-10-22T13:38:36;16.50;99.90
29501;DHT22;16450;50.288;10.966;2022-10-22T13:41:37;16.50;99.90
29501;DHT22;16450;50.288;10.966;2022-10-22T13:44:38;16.50;99.90
29501;DHT22;16450;50.288;10.966;2022-10-22T13:47:39;16.60;99.90
29501;DHT22;16450;50.288;10.966;2022-10-22T13:50:40;16.60;99.90
29501;DHT22;16450;50.288;10.966;2022-10-22T13:53:41;16.60;99.90
29501;DHT22;16450;50.288;10.966;2022-10-22T13:56:42;16.60;99.90
29501;DHT22;16450;50.288;10.966;2022-10-22T13:59:42;16.70;99.90
29501;DHT22;16450;50.288;10.966;2022-10-22T14:02:45;16.70;99.90
29501;DHT22;16450;50.288;10.966;2022-10-22T14:05:47;16.80;99.90
29501;DHT22;16450;50.288;10.966;2022-10-22T14:08:52;16.80;99.90
29501;DHT22;16450;50.288;10.966;2022-10-22T14:11:54;16.80;99.90
29501;DHT22;16450;50.288;10.966;2022-10-22T14:14:54;16.70;99.90
29501;DHT22;16450;50.288;10.966;2022-10-22T14:17:57;16.70;99.90
29501;DHT22;16450;50.288;10.966;2022-10-22T14:21:00;16.60;99.90
29501;DHT22;16450;50.288;10.966;2022-10-22T14:24:04;16.50;99.90
29501;DHT22;16450;50.288;10.966;2022-10-22T14:27:05;16.40;99.90
29501;DHT22;16450;50.288;10.966;2022-10-22T14:30:08;16.30;99.90
29501;DHT22;16450;50.288;10.966;2022-10-22T14:33:28;16.20;99.90
29501;DHT22;16450;50.288;10.966;2022-10-22T14:36:29;16.20;99.90
29501;DHT22;16450;50.288;10.966;2022-10-22T14:39:30;16.10;99.90
29501;DHT22;16450;50.288;10.966;2022-10-22T14:42:33;16.00;99.90
29501;DHT22;16450;50.288;10.966;2022-10-22T14:45:37;16.00;99.90
29501;DHT22;16450;50.288;10.966;2022-10-22T14:48:39;15.90;99.90
29501;DHT22;16450;50.288;10.966;2022-10-22T14:51:40;15.90;99.90
29501;DHT22;16450;50.288;10.966;2022-10-22T14:54:41;15.80;99.90
29501;DHT22;16450;50.288;10.966;2022-10-22T14:57:42;15.80;99.90
29501;DHT22;16450;50.288;10.966;2022-10-22T15:00:43;15.80;99.90
29501;DHT22;16450;50.288;10.966;2022-10-22T15:03:44;15.70;99.90
29501;DHT22;16450;50.288;10.966;2022-10-22T15:06:44;15.70;99.90
29501;DHT22;16450;50.288;10.966;2022-10-22T15:09:45;15.70;99.90
29501;DHT22;16450;50.288;10.966;2022-10-22T15:12:46;15.70;99.90
29501;DHT22;16450;50.288;10.966;2022-10-22T15:15:46;15.70;99.90
29501;DHT22;16450;50.288;10.966;2022-10-22T15:18:47;15.70;99.90
29501;DHT22;16450;50.288;10.966;2022-10-22T15:21:48;15.70;99.90
29501;DHT22;16450;50.288;10.966;2022-10-22T15:24:48;15.70;99.90
29501;DHT22;16450;50.288;10.966;2022-10-22T15:27:49;15.80;99.90
29501;DHT22;16450;50.288;10.966;2022-10-22T15:30:58;15.80;99.90
29501;DHT22;16450;50.288;10.966;2022-10-22T15:33:59;15.80;99.90
29501;DHT22;16450;50.288;10.966;2022-10-22T15:37:02;15.80;99.90
29501;DHT22;16450;50.288;10.966;2022-10-22T15:40:04;15.90;99.90
29501;DHT22;16450;50.288;10.966;2022-10-22T15:43:07;15.80;99.90
29501;DHT22;16450;50.288;10.966;2022-10-22T15:46:16;15.80;99.90
29501;DHT22;16450;50.288;10.966;2022-10-22T15:49:17;15.90;99.90
29501;DHT22;16450;50.288;10.966;2022-10-22T15:52:18;15.90;99.90
29501;DHT22;16450;50.288;10.966;2022-10-22T15:55:20;15.80;99.90
29501;DHT22;16450;50.288;10.966;2022-10-22T15:58:21;15.80;99.90
29501;DHT22;16450;50.288;10.966;2022-10-22T16:01:23;15.80;99.90
29501;DHT22;16450;50.288;10.966;2022-10-22T16:04:24;15.80;99.90
29501;DHT22;16450;50.288;10.966;2022-10-22T16:07:25;15.80;99.90
29501;DHT22;16450;50.288;10.966;2022-10-22T16:10:26;15.80;99.90
29501;DHT22;16450;50.288;10.966;2022-10-22T16:13:27;15.70;99.90
29501;DHT22;16450;50.288;10.966;2022-10-22T16:16:30;15.70;99.90
29501;DHT22;16450;50.288;10.966;2022-10-22T16:19:30;15.60;99.90
29501;DHT22;16450;50.288;10.966;2022-10-22T16:22:32;15.60;99.90
29501;DHT22;16450;50.288;10.966;2022-10-22T16:25:37;15.50;99.90
29501;DHT22;16450;50.288;10.966;2022-10-22T16:28:38;15.40;99.90
29501;DHT22;16450;50.288;10.966;2022-10-22T16:31:40;15.40;99.90
29501;DHT22;16450;50.288;10.966;2022-10-22T16:34:42;15.30;99.90
29501;DHT22;16450;50.288;10.966;2022-10-22T16:37:43;15.20;99.90
29501;DHT22;16450;50.288;10.966;2022-10-22T16:40:44;15.20;99.90
29501;DHT22;16450;50.288;10.966;2022-10-22T16:43:46;15.10;99.90
29501;DHT22;16450;50.288;10.966;2022-10-22T16:46:50;15.00;99.90
29501;DHT22;16450;50.288;10.966;2022-10-22T16:49:51;14.90;99.90
29501;DHT22;16450;50.288;10.966;2022-10-22T16:52:51;14.90;99.90
29501;DHT22;16450;50.288;10.966;2022-10-22T16:55:52;14.80;99.90
29501;DHT22;16450;50.288;10.966;2022-10-22T16:58:55;14.70;99.90
29501;DHT22;16450;50.288;10.966;2022-10-22T17:01:56;14.70;99.90
29501;DHT22;16450;50.288;10.966;2022-10-22T17:04:56;14.70;99.90
29501;DHT22;16450;50.288;10.966;2022-10-22T17:07:57;14.60;99.90
29501;DHT22;16450;50.288;10.966;2022-10-22T17:11:07;14.50;99.90
29501;DHT22;16450;50.288;10.966;2022-10-22T17:14:08;14.50;99.90
29501;DHT22;16450;50.288;10.966;2022-10-22T17:17:09;14.40;99.90
29501;DHT22;16450;50.288;10.966;2022-10-22T17:20:10;14.40;99.90
29501;DHT22;16450;50.288;10.966;2022-10-22T17:23:11;14.40;99.90
29501;DHT22;16450;50.288;10.966;2022-10-22T17:26:20;14.40;99.90
29501;DHT22;16450;50.288;10.966;2022-10-22T17:29:21;14.40;99.90
29501;DHT22;16450;50.288;10.966;2022-10-22T17:32:24;14.50;99.90
29501;DHT22;16450;50.288;10.966;2022-10-22T17:35:25;14.40;99.90
29501;DHT22;16450;50.288;10.966;2022-10-22T17:38:26;14.40;99.90
29501;DHT22;16450;50.288;10.966;2022-10-22T17:41:29;14.40;99.90
29501;DHT22;16450;50.288;10.966;2022-10-22T17:44:30;14.50;99.90
29501;DHT22;16450;50.288;10.966;2022-10-22T17:47:31;14.50;99.90
29501;DHT22;16450;50.288;10.966;2022-10-22T17:50:31;14.50;99.90
29501;DHT22;16450;50.288;10.966;2022-10-22T17:53:32;14.50;99.90
29501;DHT22;16450;50.288;10.966;2022-10-22T17:56:33;14.40;99.90
29501;DHT22;16450;50.288;10.966;2022-10-22T17:59:34;14.50;99.90
29501;DHT22;16450;50.288;10.966;2022-10-22T18:02:35;14.50;99.90
29501;DHT22;16450;50.288;10.966;2022-10-22T18:05:35;14.50;99.90
29501;DHT22;16450;50.288;10.966;2022-10-22T18:08:36;14.50;99.90
29501;DHT22;16450;50.288;10.966;2022-10-22T18:11:37;14.50;99.90
29501;DHT22;16450;50.288;10.966;2022-10-22T18:14:38;14.50;99.90
29501;DHT22;16450;50.288;10.966;2022-10-22T18:17:38;14.40;99.90
29501;DHT22;16450;50.288;10.966;2022-10-22T18:20:40;14.40;99.90
29501;DHT22;16450;50.288;10.966;2022-10-22T18:23:41;14.40;99.90
29501;DHT22;16450;50.288;10.966;2022-10-22T18:26:42;14.40;99.90
29501;DHT22;16450;50.288;10.966;2022-10-22T18:29:42;14.30;99.90
29501;DHT22;16450;50.288;10.966;2022-10-22T18:32:43;14.30;99.90
29501;DHT22;16450;50.288;10.966;2022-10-22T18:35:45;14.20;99.90
29501;DHT22;16450;50.288;10.966;2022-10-22T18:38:54;14.10;99.90
29501;DHT22;16450;50.288;10.966;2022-10-22T18:41:55;14.00;99.90
29501;DHT22;16450;50.288;10.966;2022-10-22T18:44:55;14.00;99.90
29501;DHT22;16450;50.288;10.966;2022-10-22T18:47:56;13.90;99.90
29501;DHT22;16450;50.288;10.966;2022-10-22T18:51:06;13.80;99.90
29501;DHT22;16450;50.288;10.966;2022-10-22T18:54:08;13.70;99.90
29501;DHT22;16450;50.288;10.966;2022-10-22T18:57:09;13.70;99.90
29501;DHT22;16450;50.288;10.966;2022-10-22T19:00:10;13.50;99.90
29501;DHT22;16450;50.288;10.966;2022-10-22T19:03:12;13.50;99.90
29501;DHT22;16450;50.288;10.966;2022-10-22T19:06:15;13.40;99.90
29501;DHT22;16450;50.288;10.966;2022-10-22T19:09:16;13.30;99.90
29501;DHT22;16450;50.288;10.966;2022-10-22T19:12:16;13.20;99.90
29501;DHT22;16450;50.288;10.966;2022-10-22T19:15:20;13.10;99.90
29501;DHT22;16450;50.288;10.966;2022-10-22T19:18:21;13.10;99.90
29501;DHT22;16450;50.288;10.966;2022-10-22T19:21:21;13.00;99.90
29501;DHT22;16450;50.288;10.966;2022-10-22T19:24:22;12.90;99.90
29501;DHT22;16450;50.288;10.966;2022-10-22T19:27:23;12.90;99.90
29501;DHT22;16450;50.288;10.966;2022-10-22T19:30:24;12.80;99.90
29501;DHT22;16450;50.288;10.966;2022-10-22T19:33:25;12.80;99.90
29501;DHT22;16450;50.288;10.966;2022-10-22T19:36:27;12.70;99.90
29501;DHT22;16450;50.288;10.966;2022-10-22T19:39:29;12.70;99.90
29501;DHT22;16450;50.288;10.966;2022-10-22T19:42:29;12.60;99.90
29501;DHT22;16450;50.288;10.966;2022-10-22T19:45:30;12.60;99.90
29501;DHT22;16450;50.288;10.966;2022-10-22T19:48:31;12.50;99.90
29501;DHT22;16450;50.288;10.966;2022-10-22T19:51:32;12.50;99.90
29501;DHT22;16450;50.288;10.966;2022-10-22T19:54:34;12.40;99.90
29501;DHT22;16450;50.288;10.966;2022-10-22T19:57:36;12.40;99.90
29501;DHT22;16450;50.288;10.966;2022-10-22T20:00:38;12.40;99.90
29501;DHT22;16450;50.288;10.966;2022-10-22T20:03:39;12.30;99.90
29501;DHT22;16450;50.288;10.966;2022-10-22T20:06:39;12.30;99.90